Terminal Aerodrome Forecast
Issued by NWS Tuscon, AZ

Home | Current Version | Previous Version | Text Only | Print | Product List | Glossary On
Versions: 1 2 3 4 5 6 7 8 9 10 11 12 13 14 15
000
FTUS45 KTWC 211100
TAFDUG
TAF
KDUG 211120Z 2112/2212 33006KT P6SM SKC
     FM211900 08007KT P6SM SCT060 SCT200
     FM220200 01008KT P6SM SKC
     FM221000 VRB03KT P6SM SKC=

USA.gov is the U.S. government's official web portal to all federal, state and local government web resources and services.